Aérodrome :
LOGIN :

S'inscrire | Disclaimer

   EN    FR    IT 

 










Légende :    VFR   VFR Marginal   IFR   IFR Intensif   IFR Très Intensif
Visi : 
Plafond : 
>= 8 km
>= 3000ft
5 à 8 km
1000 à 3000 ft
1500m à 5 km
500 à 1000 ft
800 à 1500m
200 à 500 ft
< 800m
< 200 ft
Symboles :   Orages  Brouillard  Fortes neiges  Fortes précipitations  Vent > 20 kt
SIGMETs :   Divers  Orages  Givrage  Turbulence  Onde Orograph.  Cendres Volcan.







- Altitude de l'aérodrome : 375 ft
- Code IATA : MST


EHBK - Maastricht Aachen

DERNIER METAR :
  • 172055Z AUTO 20006KT 9999 FEW041 02/01 Q1026 NOSIG

METARs EXPIRÉS :
  • 172025Z AUTO 21005KT 9999 BKN041 02/00 Q1026 NOSIG
  • 171955Z AUTO 20005KT 9999 FEW041 03/01 Q1026 NOSIG
  • 171925Z AUTO 20005KT 9999 BKN041 03/01 Q1026 NOSIG
  • 171855Z AUTO 23004KT 9999 OVC044 03/00 Q1026 NOSIG
  • 171825Z AUTO 25002KT 9999 OVC045 05/00 Q1026 NOSIG

TAF TAF EHBK
Valide du 17 à 18h jusqu'au 19 à 00h UTC


171706Z 1718/1824 26006KT CAVOK
BECMG 1808/1810 23013KT
PROB40
TEMPO 1817/1824 29015G25KT 6000 -SHRA RA SCT015TCU BKN020
BECMG 1818/1821 26008KT BKN012
PROB30 1819/1824 BKN008
Pas de NOTAMs connus pour ce terrain.



MET'MAP, la Météo Aéronautique d'un coup d'oeil ! - Copyright ORBIFLY Décembre 2007 - Disclaimer

ORBIFLY MET'MAP TEAM :

Programmation & Développement : Alexandra Zaïnal
Conception & Développement : Baudouin d'Aumeries
Co-Programmation & Développement : Marc-Olivier Méhu
Soutien technique & logistique : Manuel Goepfert

Contact : metmap@orbifly.com




SOURCES & CREDITS :

   NOAA